Time;durP1;ratioP1;P1;durP2;ratioP2;P2;SDS_P1;SDS_P2;PMS_P1;PMS_P2;Temp;Humidity;BMP_temperature;BMP_pressure;BME280_temperature;BME280_humidity;BME280_pressure;Samples;Min_cycle;Max_cycle;Signal;HPM_P1;HPM_P2
2023/02/18 00:00:02;;;;;;;23.83;12.85;;;;;;;6.39;55.28;101429.75;5069292;28;20165;-84
2023/02/18 00:02:33;;;;;;;25.15;13.32;;;;;;;6.44;54.98;101425.78;5108752;28;20217;-83
2023/02/18 00:05:15;;;;;;;26.67;13.43;;;;;;;6.58;54.68;101445.22;5105399;28;20515;-83
2023/02/18 00:07:40;;;;;;;25.23;12.80;;;;;;;6.49;54.86;101438.78;5108779;28;20111;-84
2023/02/18 00:10:10;;;;;;;25.98;12.63;;;;;;;6.61;54.50;101434.34;5071330;28;20054;-81
2023/02/18 00:12:41;;;;;;;25.33;12.85;;;;;;;6.62;54.42;101430.69;5091016;28;20039;-80
2023/02/18 00:15:09;;;;;;;24.85;12.88;;;;;;;6.60;54.52;101429.94;5088309;28;20449;-81
2023/02/18 00:17:39;;;;;;;24.52;12.80;;;;;;;6.51;54.21;101410.97;5108251;28;20050;-80
2023/02/18 00:20:11;;;;;;;30.50;13.15;;;;;;;6.61;53.94;101415.63;5087479;28;20038;-80
2023/02/18 00:22:41;;;;;;;24.98;11.98;;;;;;;6.64;54.15;101426.91;5106884;28;20043;-85
2023/02/18 00:25:08;;;;;;;25.75;12.43;;;;;;;6.70;53.93;101420.28;5088830;28;20449;-81
2023/02/18 00:27:34;;;;;;;24.20;11.65;;;;;;;6.72;53.79;101413.84;5107524;28;20111;-78
2023/02/18 00:30:05;;;;;;;23.92;12.07;;;;;;;6.68;53.61;101395.47;5070041;28;20153;-80
2023/02/18 00:32:36;;;;;;;24.35;12.18;;;;;;;6.80;53.39;101407.91;5086192;28;20047;-79
2023/02/18 00:35:04;;;;;;;22.50;11.50;;;;;;;6.78;53.39;101396.47;5093896;28;20028;-79
2023/02/18 00:37:31;;;;;;;27.85;12.35;;;;;;;6.67;53.13;101380.41;5104858;28;20039;-79
2023/02/18 00:40:01;;;;;;;22.90;11.15;;;;;;;6.75;52.90;101378.00;5090698;28;20135;-80
2023/02/18 00:42:28;;;;;;;23.15;11.18;;;;;;;6.79;53.02;101383.94;5086934;28;20150;-78
2023/02/18 00:44:54;;;;;;;20.25;11.60;;;;;;;6.86;52.79;101388.72;5087643;28;20069;-81
2023/02/18 00:47:22;;;;;;;26.52;12.07;;;;;;;6.82;52.70;101379.22;5086945;28;20599;-78
2023/02/18 00:49:53;;;;;;;26.52;12.27;;;;;;;6.86;52.38;101367.34;5081275;28;20036;-79
2023/02/18 00:52:18;;;;;;;23.38;11.57;;;;;;;6.88;51.98;101360.06;5052066;28;20031;-79
2023/02/18 00:54:44;;;;;;;21.10;11.30;;;;;;;6.79;52.02;101349.19;5066015;28;20032;-79
2023/02/18 00:57:11;;;;;;;22.48;11.40;;;;;;;6.86;52.21;101364.66;5064922;28;20036;-79
2023/02/18 00:59:38;;;;;;;20.25;10.88;;;;;;;6.95;52.33;101373.78;5064199;28;20036;-79
2023/02/18 01:02:06;;;;;;;25.02;11.90;;;;;;;6.89;51.94;101356.41;5086525;28;20152;-78
2023/02/18 01:04:32;;;;;;;22.35;11.82;;;;;;;6.90;51.90;101347.41;5082295;28;20531;-79
2023/02/18 01:06:59;;;;;;;21.73;11.25;;;;;;;6.92;52.32;101356.16;5080628;28;20101;-79
2023/02/18 01:09:25;;;;;;;22.70;11.57;;;;;;;6.86;52.40;101351.31;5088104;28;20044;-81
2023/02/18 01:11:50;;;;;;;19.50;11.30;;;;;;;6.79;52.24;101350.09;5081053;28;20032;-79
2023/02/18 01:14:16;;;;;;;23.45;11.32;;;;;;;6.66;52.58;101338.63;5086562;28;20028;-81
2023/02/18 01:16:44;;;;;;;23.50;11.48;;;;;;;6.77;52.39;101344.00;5087213;28;20028;-79
2023/02/18 01:19:13;;;;;;;22.38;11.38;;;;;;;6.57;52.60;101325.97;5087685;28;20123;-79
2023/02/18 01:21:39;;;;;;;21.33;11.43;;;;;;;6.55;52.65;101337.66;5064392;28;20032;-79
2023/02/18 01:24:05;;;;;;;22.70;11.65;;;;;;;6.63;52.75;101333.53;5070483;28;20533;-80
2023/02/18 01:26:34;;;;;;;23.17;11.77;;;;;;;6.62;52.79;101350.53;5084769;28;20043;-81
2023/02/18 01:28:59;;;;;;;23.60;11.75;;;;;;;6.59;52.66;101327.56;5090799;28;20062;-81
2023/02/18 01:31:25;;;;;;;22.83;11.90;;;;;;;6.65;52.80;101345.81;5073006;28;20085;-79
2023/02/18 01:33:52;;;;;;;;;;;;;;;6.62;53.03;101334.50;5088702;28;20039;-80
2023/02/18 01:36:23;;;;;;;23.17;11.88;;;;;;;6.55;52.97;101332.31;5091375;28;19939;-79
2023/02/18 01:38:49;;;;;;;32.53;14.32;;;;;;;6.59;53.69;101342.75;5092072;28;20476;-80
2023/02/18 01:41:14;;;;;;;30.70;15.27;;;;;;;6.54;54.24;101329.75;5085428;28;20028;-80
2023/02/18 01:43:40;;;;;;;32.45;16.80;;;;;;;6.47;54.96;101337.38;5071616;28;20040;-78
2023/02/18 01:46:22;;;;;;;30.17;16.35;;;;;;;6.45;55.20;101338.47;5091666;28;20070;-80
2023/02/18 01:48:58;;;;;;;28.55;15.88;;;;;;;6.24;55.57;101346.28;5090705;28;20039;-79
2023/02/18 01:51:41;;;;;;;23.35;12.77;;;;;;;5.95;55.19;101319.97;5069630;28;20035;-79
2023/02/18 01:54:18;;;;;;;24.23;13.93;;;;;;;6.15;55.19;101341.66;5085315;28;20414;-79
2023/02/18 01:56:56;;;;;;;24.15;12.38;;;;;;;6.07;54.87;101331.56;5090023;28;20491;-79
2023/02/18 01:59:54;;;;;;;22.90;11.43;;;;;;;6.18;54.04;101330.72;5089290;28;20077;-78
2023/02/18 02:02:21;;;;;;;21.83;10.63;;;;;;;6.20;53.49;101323.44;5067602;28;20033;-77
2023/02/18 02:04:49;;;;;;;17.13;9.50;;;;;;;6.32;53.32;101306.47;5087393;28;20047;-79
2023/02/18 02:07:16;;;;;;;18.80;10.35;;;;;;;6.39;52.95;101293.50;5091964;28;20112;-80
2023/02/18 02:09:43;;;;;;;18.75;9.48;;;;;;;6.54;52.55;101303.03;5072755;28;20040;-80
2023/02/18 02:12:29;;;;;;;17.77;9.52;;;;;;;6.61;52.22;101298.06;5090122;28;20857;-79
2023/02/18 02:15:08;;;;;;;21.83;10.55;;;;;;;6.65;52.02;101304.84;5091155;28;20423;-81
2023/02/18 02:17:48;;;;;;;21.75;10.48;;;;;;;6.61;51.99;101290.91;5085894;28;20105;-81
2023/02/18 02:20:32;;;;;;;17.60;9.88;;;;;;;6.66;52.08;101301.22;5089394;28;20087;-81
2023/02/18 02:23:26;;;;;;;19.15;10.27;;;;;;;6.74;51.82;101307.69;5077650;28;20060;-78
2023/02/18 02:26:30;;;;;;;17.95;9.70;;;;;;;6.67;51.69;101298.44;5088041;28;20040;-80
2023/02/18 02:29:17;;;;;;;18.40;9.60;;;;;;;6.74;51.70;101312.16;5045962;28;20123;-81
2023/02/18 02:31:51;;;;;;;16.63;9.63;;;;;;;6.68;51.43;101294.78;5077433;28;20135;-80
2023/02/18 02:34:25;;;;;;;19.38;9.93;;;;;;;6.85;51.26;101312.16;5090103;28;20040;-81
2023/02/18 02:37:02;;;;;;;19.85;10.27;;;;;;;6.88;51.04;101303.91;5090363;28;20036;-80
2023/02/18 02:39:34;;;;;;;16.00;9.25;;;;;;;6.85;50.92;101298.78;5071709;28;20115;-80
2023/02/18 02:42:07;;;;;;;18.55;9.80;;;;;;;6.92;50.85;101302.69;5085273;28;20113;-80
2023/02/18 02:45:13;;;;;;;16.52;10.15;;;;;;;6.99;50.80;101308.41;5086704;28;20029;-79
2023/02/18 02:47:38;;;;;;;;;;;;;;;7.04;50.45;101310.72;5068806;28;20525;-78
2023/02/18 02:50:13;;;;;;;20.23;9.52;;;;;;;6.82;50.57;101285.69;5090630;28;19911;-78
2023/02/18 02:52:50;;;;;;;19.30;9.98;;;;;;;7.10;50.18;101304.88;5085396;28;20110;-79
2023/02/18 02:55:15;;;;;;;18.23;10.07;;;;;;;7.16;50.01;101307.91;5084858;28;20325;-81
2023/02/18 02:57:52;;;;;;;18.42;11.02;;;;;;;7.23;49.86;101294.88;5069671;28;20042;-79
2023/02/18 03:00:29;;;;;;;19.45;10.43;;;;;;;7.33;49.42;101293.19;5054751;28;20068;-79
2023/02/18 03:03:22;;;;;;;20.17;10.02;;;;;;;7.36;49.38;101298.28;5085022;28;20127;-79
2023/02/18 03:05:52;;;;;;;17.05;9.43;;;;;;;7.48;48.89;101290.22;5074917;28;20045;-80
2023/02/18 03:08:39;;;;;;;15.20;8.93;;;;;;;7.65;48.76;101292.34;5091236;28;20035;-81
2023/02/18 03:11:07;;;;;;;19.80;9.77;;;;;;;7.59;48.49;101279.50;5085385;28;20031;-79
2023/02/18 03:13:51;;;;;;;18.27;9.38;;;;;;;7.70;48.64;101276.78;5089914;28;20028;-80
2023/02/18 03:17:12;;;;;;;19.00;10.38;;;;;;;7.64;48.53;101265.75;5088841;28;20043;-80
2023/02/18 03:19:45;;;;;;;17.60;9.48;;;;;;;7.66;48.59;101278.00;5066958;28;20051;-80
2023/02/18 03:22:18;;;;;;;20.27;11.02;;;;;;;7.49;48.99;101279.41;5091832;28;20036;-78
2023/02/18 03:24:46;;;;;;;19.63;10.88;;;;;;;7.22;49.49;101252.22;5085992;28;20568;-79
2023/02/18 03:27:18;;;;;;;20.83;11.10;;;;;;;7.29;49.44;101264.97;5086700;28;20119;-79
2023/02/18 03:29:45;;;;;;;20.65;11.25;;;;;;;7.47;49.16;101269.78;5088103;28;20082;-79
2023/02/18 03:32:13;;;;;;;21.20;11.35;;;;;;;7.51;49.32;101276.59;5082966;28;20049;-80
2023/02/18 03:34:41;;;;;;;22.40;10.80;;;;;;;7.47;49.40;101272.47;5088174;28;20403;-80
2023/02/18 03:37:06;;;;;;;20.10;10.68;;;;;;;7.43;49.24;101271.03;5083827;28;20086;-81
2023/02/18 03:39:34;;;;;;;17.30;10.17;;;;;;;7.46;49.46;101273.44;5063059;28;20123;-78
2023/02/18 03:41:59;;;;;;;18.05;10.30;;;;;;;7.45;49.51;101267.25;5065264;28;20698;-80
2023/02/18 03:44:26;;;;;;;19.75;11.20;;;;;;;7.36;49.14;101258.16;5061925;28;20080;-80
2023/02/18 03:46:53;;;;;;;20.02;10.60;;;;;;;7.46;49.25;101268.09;5071445;28;20032;-79
2023/02/18 03:49:18;;;;;;;17.10;10.02;;;;;;;7.51;49.01;101249.84;5071948;28;20031;-79
2023/02/18 03:51:46;;;;;;;17.48;10.10;;;;;;;7.67;48.77;101258.28;5081411;28;20028;-79
2023/02/18 03:54:13;;;;;;;22.33;11.38;;;;;;;7.59;48.91;101252.75;5082496;28;20028;-80
2023/02/18 03:56:40;;;;;;;19.38;11.10;;;;;;;7.57;48.78;101238.63;5093430;28;20095;-79
2023/02/18 03:59:06;;;;;;;25.83;12.35;;;;;;;7.50;48.75;101235.63;5093754;28;20036;-77
2023/02/18 04:01:31;;;;;;;;;;;;;;;7.59;48.79;101268.78;5096061;28;20048;-78
2023/02/18 04:03:57;;;;;;;24.30;13.10;;;;;;;7.62;48.72;101268.53;5088697;28;20303;-78
2023/02/18 04:06:22;;;;;;;25.58;14.38;;;;;;;7.53;48.83;101262.09;5087880;28;20039;-78
2023/02/18 04:08:49;;;;;;;27.48;14.15;;;;;;;7.52;48.71;101251.53;5087864;28;20055;-79
2023/02/18 04:11:15;;;;;;;24.08;13.88;;;;;;;7.42;48.91;101251.44;5086413;28;20038;-79
2023/02/18 04:13:40;;;;;;;26.23;15.00;;;;;;;7.50;49.26;101253.50;5070825;28;20036;-79
2023/02/18 04:16:06;;;;;;;33.80;17.53;;;;;;;7.46;49.46;101270.78;5053869;28;20377;-77
2023/02/18 04:18:31;;;;;;;40.67;19.15;;;;;;;7.43;49.54;101253.16;5086144;28;20290;-79
2023/02/18 04:20:59;;;;;;;36.13;21.02;;;;;;;7.48;49.45;101267.00;5068525;28;20043;-81
2023/02/18 04:23:26;;;;;;;38.17;20.58;;;;;;;7.44;49.51;101254.00;5090628;28;20072;-78
2023/02/18 04:25:52;;;;;;;36.45;19.33;;;;;;;7.52;49.54;101256.91;5053601;28;20028;-80
2023/02/18 04:28:21;;;;;;;31.98;18.17;;;;;;;7.49;49.44;101249.97;5089159;28;20082;-79
2023/02/18 04:30:47;;;;;;;28.67;15.93;;;;;;;7.50;49.42;101253.50;5102663;28;20551;-78
2023/02/18 04:33:13;;;;;;;28.80;15.35;;;;;;;7.35;49.87;101244.88;5072086;28;20043;-80
2023/02/18 04:35:41;;;;;;;23.83;13.23;;;;;;;7.46;49.40;101249.38;5090403;28;20192;-80
2023/02/18 04:38:08;;;;;;;23.63;12.75;;;;;;;7.37;49.17;101235.78;5108901;28;20032;-80
2023/02/18 04:40:34;;;;;;;21.92;12.48;;;;;;;7.42;49.08;101234.53;5088885;28;20040;-79
2023/02/18 04:43:01;;;;;;;22.60;13.15;;;;;;;7.29;49.12;101219.50;5089331;28;20039;-80
2023/02/18 04:45:27;;;;;;;23.95;13.98;;;;;;;7.35;48.67;101208.31;5090447;28;20036;-79
2023/02/18 04:47:53;;;;;;;24.83;13.90;;;;;;;7.54;48.20;101206.78;5108636;28;20032;-82
2023/02/18 04:50:19;;;;;;;25.02;13.82;;;;;;;7.46;48.33;101215.44;5087881;28;20396;-78
2023/02/18 04:52:44;;;;;;;25.75;13.82;;;;;;;7.49;48.67;101230.38;5087885;28;20036;-80
2023/02/18 04:55:11;;;;;;;27.20;13.73;;;;;;;7.53;48.49;101221.97;5089239;28;20039;-80
2023/02/18 04:57:36;;;;;;;31.27;14.55;;;;;;;7.35;48.64;101186.91;5106262;28;20474;-80
2023/02/18 05:00:06;;;;;;;25.42;13.68;;;;;;;7.58;48.48;101217.06;5104744;28;20040;-80
2023/02/18 05:02:32;;;;;;;23.70;13.30;;;;;;;7.56;48.58;101210.16;5088874;28;20481;-79
2023/02/18 05:04:58;;;;;;;26.08;13.88;;;;;;;7.64;48.36;101210.38;5093031;28;20088;-80
2023/02/18 05:07:24;;;;;;;28.75;13.30;;;;;;;7.44;48.53;101193.31;5111235;28;20039;-80
2023/02/18 05:09:49;;;;;;;22.05;13.35;;;;;;;7.48;48.40;101180.53;5093641;28;20031;-78
2023/02/18 05:12:17;;;;;;;22.70;13.40;;;;;;;7.52;48.45;101190.00;5090599;28;20089;-79
2023/02/18 05:14:45;;;;;;;28.15;13.55;;;;;;;7.60;48.33;101206.25;5108040;28;20040;-80
2023/02/18 05:17:14;;;;;;;30.63;13.73;;;;;;;7.52;48.32;101195.34;5086661;28;20036;-81
2023/02/18 05:19:41;;;;;;;24.73;13.60;;;;;;;7.68;48.18;101208.28;5109271;28;20126;-81
2023/02/18 05:22:13;;;;;;;23.92;13.80;;;;;;;7.65;48.13;101204.03;5109369;28;20126;-81
2023/02/18 05:24:40;;;;;;;23.52;12.98;;;;;;;7.57;48.14;101193.13;5111814;28;20032;-81
2023/02/18 05:27:06;;;;;;;24.83;13.00;;;;;;;7.77;47.81;101212.88;5110741;28;20128;-80
2023/02/18 05:29:33;;;;;;;26.35;13.20;;;;;;;7.84;47.58;101211.38;5096227;28;20048;-79
2023/02/18 05:31:58;;;;;;;27.75;13.32;;;;;;;7.92;47.33;101213.41;5111708;28;20032;-80
2023/02/18 05:34:25;;;;;;;25.13;13.10;;;;;;;8.08;47.07;101219.16;5075987;28;20032;-79
2023/02/18 05:36:51;;;;;;;30.55;14.05;;;;;;;7.91;47.13;101201.00;5110764;28;20042;-79
2023/02/18 05:39:16;;;;;;;23.95;13.50;;;;;;;8.00;47.16;101209.09;5111701;28;20035;-79
2023/02/18 05:41:44;;;;;;;27.85;13.68;;;;;;;8.08;46.89;101216.47;5109505;28;20047;-81
2023/02/18 05:46:54;;;;;;;26.90;13.25;;;;;;;8.36;46.46;101224.84;5095714;28;20548;-79
2023/02/18 05:49:21;;;;;;;28.48;14.82;;;;;;;8.37;46.43;101231.88;5074812;28;20032;-80
2023/02/18 05:52:03;;;;;;;34.03;15.23;;;;;;;8.25;46.32;101223.91;5112945;28;20157;-80
2023/02/18 05:54:38;;;;;;;28.30;13.73;;;;;;;8.27;46.14;101217.59;5111178;28;20035;-78
2023/02/18 05:57:04;;;;;;;38.20;13.55;;;;;;;8.35;45.78;101213.25;5092345;28;20027;-80
2023/02/18 05:59:30;;;;;;;24.88;13.00;;;;;;;8.38;45.81;101222.84;5092492;28;20081;-79
2023/02/18 06:01:59;;;;;;;30.15;13.95;;;;;;;8.40;45.65;101213.72;5091656;28;20038;-80
2023/02/18 06:04:26;;;;;;;27.98;14.75;;;;;;;8.25;45.79;101193.59;5110111;28;20426;-80
2023/02/18 06:06:52;;;;;;;31.48;14.07;;;;;;;8.42;45.93;101216.28;5090198;28;20043;-79
2023/02/18 06:09:18;;;;;;;29.02;14.25;;;;;;;8.44;45.49;101211.63;5072770;28;20176;-80
2023/02/18 06:11:44;;;;;;;31.70;14.02;;;;;;;8.55;45.10;101203.50;5071039;28;20032;-81
2023/02/18 06:14:09;;;;;;;27.27;14.30;;;;;;;8.73;44.68;101197.50;5092008;28;20088;-80
2023/02/18 06:16:36;;;;;;;32.22;15.77;;;;;;;8.59;45.08;101215.66;5075150;28;20733;-79
2023/02/18 06:19:02;;;;;;;29.88;15.43;;;;;;;8.68;44.63;101207.78;5109936;28;20043;-80
2023/02/18 06:21:28;;;;;;;32.83;16.23;;;;;;;8.74;44.74;101209.94;5091498;28;20426;-81
2023/02/18 06:23:54;;;;;;;27.75;15.23;;;;;;;8.69;44.43;101204.13;5089932;28;20107;-79
2023/02/18 06:26:24;;;;;;;29.70;16.80;;;;;;;8.91;44.07;101201.22;5090833;28;20047;-79
2023/02/18 06:28:50;;;;;;;36.05;16.63;;;;;;;9.04;43.96;101199.16;5072588;28;20520;-79
2023/02/18 06:31:16;;;;;;;35.10;16.27;;;;;;;9.04;43.79;101206.34;5108817;28;20055;-80
2023/02/18 06:33:44;;;;;;;31.08;16.95;;;;;;;8.97;43.69;101164.97;5107713;28;20039;-82
2023/02/18 06:36:10;;;;;;;26.98;15.75;;;;;;;9.11;43.29;101163.72;5092255;28;20139;-81
2023/02/18 06:38:37;;;;;;;;;;;;;;;9.27;43.18;101185.47;5073981;28;20042;-81
2023/02/18 06:41:03;;;;;;;27.83;15.90;;;;;;;9.20;43.18;101179.84;5074047;28;19968;-79
2023/02/18 06:43:30;;;;;;;31.00;16.17;;;;;;;9.18;43.29;101189.88;5108860;28;20036;-80
2023/02/18 06:45:57;;;;;;;29.65;16.05;;;;;;;9.15;43.66;101183.91;5110554;28;20031;-81
2023/02/18 06:48:22;;;;;;;31.02;17.05;;;;;;;9.12;43.60;101178.84;5074873;28;20043;-80
2023/02/18 06:50:48;;;;;;;35.67;17.27;;;;;;;9.32;43.31;101185.06;5092655;28;20032;-82
2023/02/18 06:53:18;;;;;;;32.33;15.77;;;;;;;9.20;43.05;101154.81;5109257;28;20495;-81
2023/02/18 06:55:44;;;;;;;33.60;17.02;;;;;;;9.26;42.85;101163.16;5110969;28;20160;-81
2023/02/18 06:58:12;;;;;;;29.77;15.27;;;;;;;9.55;42.57;101188.31;5090712;28;20067;-80
2023/02/18 07:00:41;;;;;;;36.03;15.45;;;;;;;9.55;42.32;101182.94;5085628;28;20039;-80
2023/02/18 07:03:08;;;;;;;25.38;14.52;;;;;;;9.73;41.92;101175.88;5087708;28;20031;-82
2023/02/18 07:05:33;;;;;;;26.05;14.38;;;;;;;9.96;41.81;101191.69;5059154;28;20040;-80
2023/02/18 07:08:01;;;;;;;24.30;14.88;;;;;;;10.13;41.34;101190.94;5104553;28;20355;-79
2023/02/18 07:10:28;;;;;;;24.45;14.48;;;;;;;10.29;41.21;101179.63;5110892;28;20530;-79
2023/02/18 07:12:53;;;;;;;37.13;14.00;;;;;;;10.57;40.51;101197.47;5110193;28;20031;-79
2023/02/18 07:15:23;;;;;;;25.38;14.07;;;;;;;10.60;39.99;101161.38;5097316;28;20043;-80
2023/02/18 07:17:50;;;;;;;23.35;13.20;;;;;;;10.63;39.90;101173.66;5111170;28;20498;-80
2023/02/18 07:20:17;;;;;;;23.02;13.30;;;;;;;10.77;39.90;101167.81;5104560;28;20023;-79
2023/02/18 07:22:44;;;;;;;24.23;12.68;;;;;;;10.90;39.49;101173.66;5112764;28;20061;-79
2023/02/18 07:25:09;;;;;;;24.00;13.43;;;;;;;10.94;39.51;101166.16;5096989;28;20406;-80
2023/02/18 07:27:38;;;;;;;30.73;13.73;;;;;;;11.04;39.39;101180.38;5092279;28;20032;-80
2023/02/18 07:30:05;;;;;;;25.35;14.30;;;;;;;11.12;39.75;101179.63;5100570;28;20040;-80
2023/02/18 07:32:35;;;;;;;23.58;14.20;;;;;;;11.12;39.74;101164.34;5091696;28;20095;-80
2023/02/18 07:35:05;;;;;;;35.28;15.38;;;;;;;11.18;39.47;101155.66;5076149;28;20062;-79
2023/02/18 07:37:31;;;;;;;27.65;15.45;;;;;;;11.30;39.62;101150.03;5089067;28;20039;-80
2023/02/18 07:39:57;;;;;;;31.15;15.82;;;;;;;11.54;39.08;101166.44;5075949;28;20080;-80
2023/02/18 07:42:25;;;;;;;;;;;;;;;11.64;38.67;101166.34;5091047;28;20086;-80
2023/02/18 07:44:52;;;;;;;31.23;15.32;;;;;;;11.82;38.61;101166.28;5064267;28;20004;-78
2023/02/18 07:47:20;;;;;;;34.65;17.10;;;;;;;11.75;38.95;101163.41;5090799;28;20458;-80
2023/02/18 07:49:48;;;;;;;33.33;17.05;;;;;;;11.75;39.27;101163.41;5110311;28;20027;-80
2023/02/18 07:52:16;;;;;;;36.95;16.98;;;;;;;11.80;39.52;101158.41;5108894;28;20027;-80
2023/02/18 07:54:43;;;;;;;34.70;18.27;;;;;;;11.97;39.17;101150.47;5070116;28;20630;-79
2023/02/18 07:57:10;;;;;;;46.70;22.50;;;;;;;11.81;39.16;101135.00;5080273;28;20031;-81
2023/02/18 07:59:35;;;;;;;;;;;;;;;11.92;39.20;101159.00;5067417;28;20036;-79
2023/02/18 08:02:00;;;;;;;48.55;24.83;;;;;;;11.89;39.51;101156.63;5073696;28;20858;-80
2023/02/18 08:04:27;;;;;;;53.45;24.90;;;;;;;11.93;39.31;101139.13;5102127;28;20145;-79
2023/02/18 08:06:52;;;;;;;;;;;;;;;12.21;39.05;101152.47;5072519;28;20040;-79
2023/02/18 08:09:18;;;;;;;44.75;24.35;;;;;;;12.22;39.28;101144.22;5110126;28;19918;-80
2023/02/18 08:11:43;;;;;;;57.58;24.55;;;;;;;12.50;39.15;101135.06;5091954;28;20427;-80
2023/02/18 08:14:13;;;;;;;45.10;23.70;;;;;;;12.88;38.63;101133.72;5090422;28;20094;-80
2023/02/18 08:16:40;;;;;;;42.22;22.27;;;;;;;12.95;38.58;101117.72;5109690;28;20035;-81
2023/02/18 08:19:08;;;;;;;44.10;22.77;;;;;;;13.27;38.27;101120.50;5075079;28;20028;-80
2023/02/18 08:21:39;;;;;;;52.83;20.90;;;;;;;13.54;37.76;101129.25;5075263;28;20127;-81
2023/02/18 08:24:07;;;;;;;40.13;20.65;;;;;;;13.45;37.13;101122.16;5088333;28;20061;-79
2023/02/18 08:26:34;;;;;;;40.78;19.55;;;;;;;13.71;36.75;101124.69;5066339;28;20058;-80
2023/02/18 08:29:00;;;;;;;42.60;19.38;;;;;;;13.87;36.08;101123.84;5108661;28;20063;-80
2023/02/18 08:31:27;;;;;;;37.60;18.23;;;;;;;13.72;36.38;101112.88;5091018;28;20055;-80
2023/02/18 08:33:57;;;;;;;40.53;18.48;;;;;;;13.59;36.36;101088.22;5104660;28;20491;-81
2023/02/18 08:36:24;;;;;;;32.42;17.58;;;;;;;13.84;35.81;101108.81;5093675;28;20507;-81
2023/02/18 08:38:50;;;;;;;32.20;15.98;;;;;;;13.93;35.70;101106.94;5094831;28;20503;-81
2023/02/18 08:41:17;;;;;;;31.20;16.10;;;;;;;13.80;35.59;101085.00;5112708;28;20040;-81
2023/02/18 08:43:47;;;;;;;32.00;15.75;;;;;;;14.01;35.49;101108.78;5103489;28;20028;-82
2023/02/18 08:46:16;;;;;;;29.33;16.23;;;;;;;14.09;35.31;101098.78;5078875;28;20084;-79
2023/02/18 08:48:45;;;;;;;36.40;18.10;;;;;;;14.21;34.82;101104.69;5090806;28;20513;-80
2023/02/18 08:51:15;;;;;;;31.05;17.05;;;;;;;14.22;34.83;101073.91;5078747;28;20035;-79
2023/02/18 08:53:48;;;;;;;29.20;16.85;;;;;;;14.20;34.72;101086.75;5100488;28;20077;-80
2023/02/18 08:56:16;;;;;;;33.33;19.42;;;;;;;14.60;34.27;101078.66;5094243;28;20459;-79
2023/02/18 08:58:44;;;;;;;36.88;20.17;;;;;;;14.91;34.24;101059.69;5109614;28;20033;-81
2023/02/18 09:01:11;;;;;;;32.08;19.40;;;;;;;15.38;33.49;101078.47;5093441;28;20043;-81
2023/02/18 09:03:36;;;;;;;;;;;;;;;15.51;33.23;101090.56;5109202;28;20038;-80
2023/02/18 09:06:06;;;;;;;34.88;17.85;;;;;;;15.32;33.16;101081.06;5095036;28;19916;-80
2023/02/18 09:08:35;;;;;;;39.75;19.48;;;;;;;15.13;33.56;101074.28;5112942;28;20142;-79
2023/02/18 09:11:04;;;;;;;30.48;16.08;;;;;;;15.26;32.84;101068.25;5090941;28;20032;-80
2023/02/18 09:13:29;;;;;;;25.65;12.25;;;;;;;15.53;31.61;101078.50;5107063;28;20492;-79
2023/02/18 09:16:07;;;;;;;20.35;11.40;;;;;;;15.65;30.77;101070.78;5080098;28;20043;-78
2023/02/18 09:18:34;;;;;;;20.38;10.60;;;;;;;15.84;30.57;101066.72;5121321;28;20032;-80
2023/02/18 09:21:01;;;;;;;;;;;;;;;15.84;30.38;101069.44;5093096;28;20118;-80
2023/02/18 09:23:31;;;;;;;22.83;10.25;;;;;;;15.82;30.36;101061.47;5107328;28;20003;-84
2023/02/18 09:26:07;;;;;;;29.38;9.32;;;;;;;15.53;30.54;101045.16;5076087;28;20105;-83
2023/02/18 09:28:36;;;;;;;23.92;9.20;;;;;;;15.68;30.27;101056.84;5108761;28;20043;-80
2023/02/18 09:31:07;;;;;;;20.17;8.27;;;;;;;15.78;30.38;101054.75;5075285;28;20044;-80
2023/02/18 09:33:37;;;;;;;21.30;7.45;;;;;;;15.66;30.25;101041.78;5110621;28;20034;-79
2023/02/18 09:36:03;;;;;;;20.33;7.75;;;;;;;15.78;29.71;101027.66;5112686;28;20043;-80
2023/02/18 09:38:32;;;;;;;26.35;6.53;;;;;;;15.69;29.70;101033.31;5069040;28;20532;-81
2023/02/18 09:40:57;;;;;;;31.48;6.65;;;;;;;15.57;29.94;101024.81;5080365;28;20036;-80
2023/02/18 09:43:42;;;;;;;21.55;6.28;;;;;;;15.83;29.64;101035.22;5083533;28;20059;-81
2023/02/18 09:46:18;;;;;;;19.67;6.18;;;;;;;15.52;29.47;101019.94;5078187;28;20134;-80
2023/02/18 09:48:44;;;;;;;26.67;6.32;;;;;;;15.65;29.62;101026.56;5093270;28;20019;-80
2023/02/18 09:51:14;;;;;;;20.80;6.82;;;;;;;15.38;29.83;101032.41;5090473;28;20035;-80
2023/02/18 09:53:44;;;;;;;22.38;6.07;;;;;;;15.56;29.51;101029.34;5081436;28;20082;-80
2023/02/18 09:56:11;;;;;;;17.17;5.95;;;;;;;15.65;29.45;101023.88;5077058;28;20032;-81
2023/02/18 09:58:41;;;;;;;18.67;6.10;;;;;;;15.52;29.66;101016.34;5076784;28;20495;-83
2023/02/18 10:01:42;;;;;;;15.52;6.50;;;;;;;15.70;29.59;101025.00;5090431;28;20032;-81
2023/02/18 10:04:26;;;;;;;11.35;5.50;;;;;;;15.57;29.65;101014.78;5108598;28;20499;-80
2023/02/18 10:06:57;;;;;;;17.08;6.00;;;;;;;15.67;29.87;101011.81;5095941;28;20165;-80
2023/02/18 10:09:39;;;;;;;14.60;6.13;;;;;;;15.47;29.84;101000.66;5076395;28;20032;-80
2023/02/18 10:12:14;;;;;;;23.80;5.95;;;;;;;15.41;29.99;101021.22;5093836;28;20039;-80
2023/02/18 10:14:46;;;;;;;12.18;5.65;;;;;;;15.26;30.18;101009.47;5112659;28;20024;-80
2023/02/18 10:17:13;;;;;;;12.07;5.40;;;;;;;15.18;30.40;101004.16;5112287;28;20065;-80
2023/02/18 10:19:40;;;;;;;14.88;6.35;;;;;;;15.24;30.29;100995.31;5090255;28;20096;-80
2023/02/18 10:22:10;;;;;;;12.07;5.78;;;;;;;15.51;30.40;101001.13;5077221;28;20112;-82
2023/02/18 10:24:43;;;;;;;14.65;6.07;;;;;;;15.55;30.42;101005.16;5084317;28;20032;-80
2023/02/18 10:27:09;;;;;;;12.73;5.60;;;;;;;15.51;30.34;100991.13;5102561;28;20084;-81
2023/02/18 10:29:37;;;;;;;13.95;5.38;;;;;;;15.70;30.12;101003.31;5056513;28;20076;-80
2023/02/18 10:32:22;;;;;;;12.10;5.68;;;;;;;15.65;29.98;100997.59;5103492;28;20047;-79
2023/02/18 10:35:10;;;;;;;9.63;5.25;;;;;;;15.75;30.18;100992.75;5098158;28;20112;-79
2023/02/18 10:37:57;;;;;;;12.02;4.85;;;;;;;15.89;30.17;101009.22;5071750;28;20028;-78
2023/02/18 10:40:35;;;;;;;10.95;5.38;;;;;;;16.07;30.33;100995.28;5079290;28;20038;-80
2023/02/18 10:43:26;;;;;;;14.20;5.40;;;;;;;16.12;30.01;100979.28;5109560;28;20401;-80
2023/02/18 10:46:48;;;;;;;15.25;5.78;;;;;;;16.11;30.53;100983.00;5106077;28;20076;-81
2023/02/18 10:49:33;;;;;;;15.40;4.95;;;;;;;16.08;30.80;100975.25;5123577;28;20419;-80
2023/02/18 10:52:03;;;;;;;10.85;5.93;;;;;;;16.04;30.61;100951.25;5108157;28;20045;-80
2023/02/18 10:55:04;;;;;;;13.43;5.20;;;;;;;16.13;30.85;100970.97;5111323;28;20032;-80
2023/02/18 10:57:33;;;;;;;15.90;5.13;;;;;;;16.07;31.27;100985.28;5079613;28;20035;-79
2023/02/18 11:00:15;;;;;;;;;;;;;;;16.15;31.29;100990.56;5110792;28;20039;-80
2023/02/18 11:02:41;;;;;;;14.75;6.60;;;;;;;16.00;31.64;100966.19;5107993;28;19961;-81
2023/02/18 11:05:28;;;;;;;12.25;6.28;;;;;;;16.28;31.53;100975.53;5072332;28;20078;-81
2023/02/18 11:07:58;;;;;;;14.35;5.78;;;;;;;16.43;31.75;100976.31;5089096;28;20054;-80
2023/02/18 11:10:32;;;;;;;13.10;5.25;;;;;;;16.38;31.29;100962.47;5063060;28;20211;-80
2023/02/18 11:13:04;;;;;;;8.95;5.28;;;;;;;16.73;31.42;100970.78;5099416;28;20038;-81
2023/02/18 11:15:34;;;;;;;19.08;6.10;;;;;;;17.05;31.18;100962.13;5093589;28;20055;-80
2023/02/18 11:18:13;;;;;;;12.10;4.95;;;;;;;17.75;30.18;100969.47;5092491;28;20019;-80
2023/02/18 11:20:40;;;;;;;9.50;4.90;;;;;;;18.13;29.78;100945.44;5109459;28;20047;-80
2023/02/18 11:23:07;;;;;;;8.93;4.80;;;;;;;17.88;30.33;100954.09;5092117;28;20034;-80
2023/02/18 11:25:37;;;;;;;18.55;5.45;;;;;;;17.90;30.98;100956.63;5110926;28;20092;-79
2023/02/18 11:28:04;;;;;;;10.68;4.72;;;;;;;17.79;31.29;100943.56;5089483;28;20065;-79
2023/02/18 11:30:34;;;;;;;20.33;5.63;;;;;;;17.91;31.32;100953.72;5089077;28;20040;-78
2023/02/18 11:33:08;;;;;;;20.42;5.13;;;;;;;18.39;30.85;100954.72;5085848;28;20446;-80
2023/02/18 11:35:34;;;;;;;14.00;4.57;;;;;;;18.36;30.53;100926.03;5089458;28;20090;-79